sensor_id;sensor_type;location;lat;lon;timestamp;pressure;altitude;pressure_sealevel;temperature;humidity
64841;BME280;51307;52.162;7.560;2024-03-17T00:01:13;101916.34;;;6.07;70.75
64841;BME280;51307;52.162;7.560;2024-03-17T00:03:39;101915.38;;;6.09;70.75
64841;BME280;51307;52.162;7.560;2024-03-17T00:06:05;101915.16;;;6.12;70.63
64841;BME280;51307;52.162;7.560;2024-03-17T00:08:31;101916.03;;;6.12;70.46
64841;BME280;51307;52.162;7.560;2024-03-17T00:10:56;101918.38;;;6.17;70.31
64841;BME280;51307;52.162;7.560;2024-03-17T00:13:23;101921.97;;;6.16;70.40
64841;BME280;51307;52.162;7.560;2024-03-17T00:15:49;101913.94;;;6.17;70.25
64841;BME280;51307;52.162;7.560;2024-03-17T00:18:15;101915.41;;;6.21;70.35
64841;BME280;51307;52.162;7.560;2024-03-17T00:20:41;101916.34;;;6.07;70.49
64841;BME280;51307;52.162;7.560;2024-03-17T00:23:06;101908.91;;;6.13;70.24
64841;BME280;51307;52.162;7.560;2024-03-17T00:25:33;101911.63;;;5.98;70.58
64841;BME280;51307;52.162;7.560;2024-03-17T00:28:00;101912.78;;;5.94;70.73
64841;BME280;51307;52.162;7.560;2024-03-17T00:30:25;101905.25;;;6.01;70.38
64841;BME280;51307;52.162;7.560;2024-03-17T00:32:51;101904.19;;;5.90;70.51
64841;BME280;51307;52.162;7.560;2024-03-17T00:35:17;101903.44;;;5.88;70.42
64841;BME280;51307;52.162;7.560;2024-03-17T00:37:49;101902.16;;;5.94;70.19
64841;BME280;51307;52.162;7.560;2024-03-17T00:40:17;101900.88;;;5.87;70.50
64841;BME280;51307;52.162;7.560;2024-03-17T00:42:43;101904.50;;;5.86;70.60
64841;BME280;51307;52.162;7.560;2024-03-17T00:45:10;101896.56;;;5.71;71.03
64841;BME280;51307;52.162;7.560;2024-03-17T00:47:37;101887.56;;;5.74;70.77
64841;BME280;51307;52.162;7.560;2024-03-17T00:50:03;101893.84;;;5.73;70.51
64841;BME280;51307;52.162;7.560;2024-03-17T00:52:30;101887.22;;;5.66;70.67
64841;BME280;51307;52.162;7.560;2024-03-17T00:54:56;101890.47;;;5.84;70.03
64841;BME280;51307;52.162;7.560;2024-03-17T00:57:21;101888.47;;;5.60;70.57
64841;BME280;51307;52.162;7.560;2024-03-17T00:59:46;101885.63;;;5.63;70.69
64841;BME280;51307;52.162;7.560;2024-03-17T01:02:13;101886.44;;;5.51;71.14
64841;BME280;51307;52.162;7.560;2024-03-17T01:04:40;101880.16;;;5.52;70.61
64841;BME280;51307;52.162;7.560;2024-03-17T01:07:05;101884.19;;;5.45;70.97
64841;BME280;51307;52.162;7.560;2024-03-17T01:09:31;101880.97;;;5.39;70.81
64841;BME280;51307;52.162;7.560;2024-03-17T01:11:57;101882.19;;;5.34;70.74
64841;BME280;51307;52.162;7.560;2024-03-17T01:14:22;101880.97;;;5.39;70.30
64841;BME280;51307;52.162;7.560;2024-03-17T01:16:50;101874.81;;;5.39;70.52
64841;BME280;51307;52.162;7.560;2024-03-17T01:19:16;101868.41;;;5.29;71.33
64841;BME280;51307;52.162;7.560;2024-03-17T01:21:41;101864.53;;;5.20;71.57
64841;BME280;51307;52.162;7.560;2024-03-17T01:24:07;101854.63;;;5.36;71.53
64841;BME280;51307;52.162;7.560;2024-03-17T01:26:33;101842.00;;;5.40;70.91
64841;BME280;51307;52.162;7.560;2024-03-17T01:28:58;101851.22;;;5.34;71.47
64841;BME280;51307;52.162;7.560;2024-03-17T01:31:23;101844.22;;;5.33;71.87
64841;BME280;51307;52.162;7.560;2024-03-17T01:33:50;101849.31;;;5.36;71.66
64841;BME280;51307;52.162;7.560;2024-03-17T01:36:16;101848.69;;;5.33;71.60
64841;BME280;51307;52.162;7.560;2024-03-17T01:38:41;101847.28;;;5.27;71.25
64841;BME280;51307;52.162;7.560;2024-03-17T01:41:07;101844.22;;;5.33;70.98
64841;BME280;51307;52.162;7.560;2024-03-17T01:43:32;101832.09;;;5.29;71.19
64841;BME280;51307;52.162;7.560;2024-03-17T01:45:59;101842.31;;;5.35;70.89
64841;BME280;51307;52.162;7.560;2024-03-17T01:48:25;101834.66;;;5.31;70.65
64841;BME280;51307;52.162;7.560;2024-03-17T01:50:53;101836.75;;;5.26;70.91
64841;BME280;51307;52.162;7.560;2024-03-17T01:53:21;101839.31;;;5.27;70.99
64841;BME280;51307;52.162;7.560;2024-03-17T01:55:53;101839.13;;;5.30;71.20
64841;BME280;51307;52.162;7.560;2024-03-17T01:58:25;101835.75;;;5.14;71.34
64841;BME280;51307;52.162;7.560;2024-03-17T02:00:53;101835.00;;;5.12;71.23
64841;BME280;51307;52.162;7.560;2024-03-17T02:03:18;101841.69;;;5.17;71.04
64841;BME280;51307;52.162;7.560;2024-03-17T02:05:44;101837.53;;;5.13;70.94
64841;BME280;51307;52.162;7.560;2024-03-17T02:08:11;101830.81;;;5.22;70.63
64841;BME280;51307;52.162;7.560;2024-03-17T02:10:37;101840.31;;;5.12;70.57
64841;BME280;51307;52.162;7.560;2024-03-17T02:13:03;101841.31;;;5.23;70.16
64841;BME280;51307;52.162;7.560;2024-03-17T02:15:32;101836.66;;;5.27;69.93
64841;BME280;51307;52.162;7.560;2024-03-17T02:17:58;101840.19;;;5.13;70.49
64841;BME280;51307;52.162;7.560;2024-03-17T02:20:24;101839.34;;;5.13;70.56
64841;BME280;51307;52.162;7.560;2024-03-17T02:23:08;101845.34;;;5.02;70.62
64841;BME280;51307;52.162;7.560;2024-03-17T02:25:33;101844.09;;;5.08;70.25
64841;BME280;51307;52.162;7.560;2024-03-17T02:28:00;101844.22;;;5.06;70.35
64841;BME280;51307;52.162;7.560;2024-03-17T02:30:25;101838.66;;;4.96;71.19
64841;BME280;51307;52.162;7.560;2024-03-17T02:32:54;101836.16;;;4.93;71.13
64841;BME280;51307;52.162;7.560;2024-03-17T02:35:24;101833.03;;;5.01;70.98
64841;BME280;51307;52.162;7.560;2024-03-17T02:37:49;101828.78;;;4.98;70.78
64841;BME280;51307;52.162;7.560;2024-03-17T02:40:15;101835.78;;;4.99;70.33
64841;BME280;51307;52.162;7.560;2024-03-17T02:42:42;101833.63;;;4.92;70.57
64841;BME280;51307;52.162;7.560;2024-03-17T02:45:13;101833.72;;;4.90;70.60
64841;BME280;51307;52.162;7.560;2024-03-17T02:47:39;101831.72;;;4.94;70.72
64841;BME280;51307;52.162;7.560;2024-03-17T02:50:06;101824.63;;;4.94;70.30
64841;BME280;51307;52.162;7.560;2024-03-17T02:52:31;101827.84;;;4.85;70.84
64841;BME280;51307;52.162;7.560;2024-03-17T02:54:57;101819.53;;;4.77;70.88
64841;BME280;51307;52.162;7.560;2024-03-17T02:57:23;101826.66;;;4.76;70.92
64841;BME280;51307;52.162;7.560;2024-03-17T02:59:50;101825.78;;;4.76;70.38
64841;BME280;51307;52.162;7.560;2024-03-17T03:02:17;101831.28;;;4.72;70.87
64841;BME280;51307;52.162;7.560;2024-03-17T03:04:42;101830.81;;;4.66;70.73
64841;BME280;51307;52.162;7.560;2024-03-17T03:07:08;101827.88;;;4.70;70.76
64841;BME280;51307;52.162;7.560;2024-03-17T03:09:33;101829.69;;;4.70;70.90
64841;BME280;51307;52.162;7.560;2024-03-17T03:12:00;101825.41;;;4.67;70.73
64841;BME280;51307;52.162;7.560;2024-03-17T03:14:30;101826.56;;;4.63;70.59
64841;BME280;51307;52.162;7.560;2024-03-17T03:16:56;101820.59;;;4.60;70.51
64841;BME280;51307;52.162;7.560;2024-03-17T03:19:21;101818.81;;;4.60;70.43
64841;BME280;51307;52.162;7.560;2024-03-17T03:21:47;101819.66;;;4.61;70.55
64841;BME280;51307;52.162;7.560;2024-03-17T03:24:15;101813.97;;;4.67;70.47
64841;BME280;51307;52.162;7.560;2024-03-17T03:26:41;101813.19;;;4.79;70.14
64841;BME280;51307;52.162;7.560;2024-03-17T03:29:07;101819.53;;;4.62;70.41
64841;BME280;51307;52.162;7.560;2024-03-17T03:31:33;101813.59;;;4.59;70.38
64841;BME280;51307;52.162;7.560;2024-03-17T03:34:01;101826.94;;;4.57;70.52
64841;BME280;51307;52.162;7.560;2024-03-17T03:36:29;101818.78;;;4.46;71.01
64841;BME280;51307;52.162;7.560;2024-03-17T03:38:55;101827.22;;;4.52;70.76
64841;BME280;51307;52.162;7.560;2024-03-17T03:41:23;101832.53;;;4.52;70.58
64841;BME280;51307;52.162;7.560;2024-03-17T03:43:50;101829.47;;;4.44;70.59
64841;BME280;51307;52.162;7.560;2024-03-17T03:46:15;101829.00;;;4.37;70.96
64841;BME280;51307;52.162;7.560;2024-03-17T03:48:41;101826.44;;;4.36;71.28
64841;BME280;51307;52.162;7.560;2024-03-17T03:51:08;101829.09;;;4.50;70.83
64841;BME280;51307;52.162;7.560;2024-03-17T03:53:36;101824.88;;;4.48;71.15
64841;BME280;51307;52.162;7.560;2024-03-17T03:56:05;101821.72;;;4.55;70.84
64841;BME280;51307;52.162;7.560;2024-03-17T03:58:34;101819.72;;;4.45;71.21
64841;BME280;51307;52.162;7.560;2024-03-17T04:01:03;101817.38;;;4.40;71.16
64841;BME280;51307;52.162;7.560;2024-03-17T04:03:29;101820.75;;;4.42;71.29
64841;BME280;51307;52.162;7.560;2024-03-17T04:08:31;101824.66;;;4.36;71.46
64841;BME280;51307;52.162;7.560;2024-03-17T04:10:57;101826.81;;;4.44;71.12
64841;BME280;51307;52.162;7.560;2024-03-17T04:13:22;101823.59;;;4.39;71.29
64841;BME280;51307;52.162;7.560;2024-03-17T04:15:48;101827.28;;;4.36;71.25
64841;BME280;51307;52.162;7.560;2024-03-17T04:18:13;101824.66;;;4.36;71.36
64841;BME280;51307;52.162;7.560;2024-03-17T04:20:41;101827.97;;;4.40;71.38
64841;BME280;51307;52.162;7.560;2024-03-17T04:23:07;101822.88;;;4.37;71.35
64841;BME280;51307;52.162;7.560;2024-03-17T04:25:32;101819.34;;;4.36;71.55
64841;BME280;51307;52.162;7.560;2024-03-17T04:27:58;101826.47;;;4.50;71.20
64841;BME280;51307;52.162;7.560;2024-03-17T04:30:23;101822.38;;;4.45;71.47
64841;BME280;51307;52.162;7.560;2024-03-17T04:32:49;101813.84;;;4.39;71.51
64841;BME280;51307;52.162;7.560;2024-03-17T04:35:15;101815.28;;;4.31;71.20
64841;BME280;51307;52.162;7.560;2024-03-17T04:37:41;101813.66;;;4.28;71.57
64841;BME280;51307;52.162;7.560;2024-03-17T04:40:07;101815.19;;;4.32;71.32
64841;BME280;51307;52.162;7.560;2024-03-17T04:42:35;101813.66;;;4.28;71.50
64841;BME280;51307;52.162;7.560;2024-03-17T04:45:00;101815.28;;;4.31;71.49
64841;BME280;51307;52.162;7.560;2024-03-17T04:47:26;101812.53;;;4.32;71.39
64841;BME280;51307;52.162;7.560;2024-03-17T04:49:51;101814.97;;;4.35;71.23
64841;BME280;51307;52.162;7.560;2024-03-17T04:52:18;101814.97;;;4.35;71.14
64841;BME280;51307;52.162;7.560;2024-03-17T04:54:43;101816.31;;;4.28;71.47
64841;BME280;51307;52.162;7.560;2024-03-17T04:57:09;101819.81;;;4.43;71.38
64841;BME280;51307;52.162;7.560;2024-03-17T04:59:35;101816.78;;;4.20;71.91
64841;BME280;51307;52.162;7.560;2024-03-17T05:02:01;101812.44;;;4.34;71.70
64841;BME280;51307;52.162;7.560;2024-03-17T05:04:27;101807.91;;;4.65;71.55
64841;BME280;51307;52.162;7.560;2024-03-17T05:06:53;101806.13;;;4.65;71.99
64841;BME280;51307;52.162;7.560;2024-03-17T05:09:19;101802.13;;;4.72;71.59
64841;BME280;51307;52.162;7.560;2024-03-17T05:11:45;101797.78;;;4.57;72.22
64841;BME280;51307;52.162;7.560;2024-03-17T05:14:11;101797.69;;;4.44;73.20
64841;BME280;51307;52.162;7.560;2024-03-17T05:16:37;101803.44;;;4.22;74.54
64841;BME280;51307;52.162;7.560;2024-03-17T05:19:02;101796.63;;;4.18;74.69
64841;BME280;51307;52.162;7.560;2024-03-17T05:21:29;101797.19;;;4.37;73.69
64841;BME280;51307;52.162;7.560;2024-03-17T05:23:57;101799.50;;;4.44;74.00
64841;BME280;51307;52.162;7.560;2024-03-17T05:26:24;101801.50;;;4.54;73.62
64841;BME280;51307;52.162;7.560;2024-03-17T05:28:52;101802.91;;;4.60;73.13
64841;BME280;51307;52.162;7.560;2024-03-17T05:31:19;101791.53;;;4.15;75.09
64841;BME280;51307;52.162;7.560;2024-03-17T05:33:47;101788.69;;;4.03;76.33
64841;BME280;51307;52.162;7.560;2024-03-17T05:36:13;101795.09;;;4.14;76.25
64841;BME280;51307;52.162;7.560;2024-03-17T05:38:39;101782.44;;;4.19;75.78
64841;BME280;51307;52.162;7.560;2024-03-17T05:41:09;101788.31;;;4.10;75.91
64841;BME280;51307;52.162;7.560;2024-03-17T05:43:36;101790.78;;;4.13;75.89
64841;BME280;51307;52.162;7.560;2024-03-17T05:46:07;101785.66;;;4.10;76.02
64841;BME280;51307;52.162;7.560;2024-03-17T05:48:33;101790.97;;;3.95;76.59
64841;BME280;51307;52.162;7.560;2024-03-17T05:51:03;101785.06;;;4.04;76.18
64841;BME280;51307;52.162;7.560;2024-03-17T05:53:28;101785.16;;;4.46;74.76
64841;BME280;51307;52.162;7.560;2024-03-17T05:55:54;101792.38;;;4.15;76.12
64841;BME280;51307;52.162;7.560;2024-03-17T05:58:20;101788.50;;;4.07;76.16
64841;BME280;51307;52.162;7.560;2024-03-17T06:00:46;101788.31;;;4.10;75.79
64841;BME280;51307;52.162;7.560;2024-03-17T06:03:11;101783.47;;;4.31;75.44
64841;BME280;51307;52.162;7.560;2024-03-17T06:05:39;101787.75;;;4.19;75.58
64841;BME280;51307;52.162;7.560;2024-03-17T06:08:08;101796.63;;;4.32;75.62
64841;BME280;51307;52.162;7.560;2024-03-17T06:10:36;101795.59;;;4.20;76.27
64841;BME280;51307;52.162;7.560;2024-03-17T06:13:03;101788.47;;;4.35;75.98
64841;BME280;51307;52.162;7.560;2024-03-17T06:15:29;101788.25;;;4.54;75.13
64841;BME280;51307;52.162;7.560;2024-03-17T06:17:55;101788.88;;;4.29;75.75
64841;BME280;51307;52.162;7.560;2024-03-17T06:20:24;101794.53;;;4.23;76.37
64841;BME280;51307;52.162;7.560;2024-03-17T06:22:53;101792.75;;;4.38;76.09
64841;BME280;51307;52.162;7.560;2024-03-17T06:25:18;101794.19;;;4.44;76.27
64841;BME280;51307;52.162;7.560;2024-03-17T06:27:44;101800.94;;;4.49;76.11
64841;BME280;51307;52.162;7.560;2024-03-17T06:30:13;101796.47;;;4.64;75.33
64841;BME280;51307;52.162;7.560;2024-03-17T06:32:43;101794.84;;;4.62;75.39
64841;BME280;51307;52.162;7.560;2024-03-17T06:35:11;101795.78;;;4.61;75.89
64841;BME280;51307;52.162;7.560;2024-03-17T06:37:36;101790.38;;;4.77;75.42
64841;BME280;51307;52.162;7.560;2024-03-17T06:40:02;101797.75;;;4.86;75.41
64841;BME280;51307;52.162;7.560;2024-03-17T06:42:31;101804.09;;;4.83;75.64
64841;BME280;51307;52.162;7.560;2024-03-17T06:44:57;101799.16;;;4.77;76.17
64841;BME280;51307;52.162;7.560;2024-03-17T06:47:23;101798.69;;;4.70;76.96
64841;BME280;51307;52.162;7.560;2024-03-17T06:49:49;101796.81;;;4.72;77.25
64841;BME280;51307;52.162;7.560;2024-03-17T06:52:14;101795.25;;;4.97;76.78
64841;BME280;51307;52.162;7.560;2024-03-17T06:54:40;101791.44;;;5.01;76.64
64841;BME280;51307;52.162;7.560;2024-03-17T06:57:05;101793.00;;;4.91;77.67
64841;BME280;51307;52.162;7.560;2024-03-17T06:59:34;101785.63;;;5.09;76.95
64841;BME280;51307;52.162;7.560;2024-03-17T07:02:00;101789.91;;;5.12;77.06
64841;BME280;51307;52.162;7.560;2024-03-17T07:04:26;101792.75;;;5.09;77.42
64841;BME280;51307;52.162;7.560;2024-03-17T07:06:52;101795.88;;;5.15;77.29
64841;BME280;51307;52.162;7.560;2024-03-17T07:09:17;101789.31;;;5.34;76.72
64841;BME280;51307;52.162;7.560;2024-03-17T07:11:43;101784.50;;;5.53;76.06
64841;BME280;51307;52.162;7.560;2024-03-17T07:14:10;101782.22;;;5.34;77.28
64841;BME280;51307;52.162;7.560;2024-03-17T07:16:35;101787.31;;;5.37;77.67
64841;BME280;51307;52.162;7.560;2024-03-17T07:19:02;101779.59;;;5.47;77.30
64841;BME280;51307;52.162;7.560;2024-03-17T07:21:28;101787.19;;;5.66;76.66
64841;BME280;51307;52.162;7.560;2024-03-17T07:23:53;101787.19;;;5.79;76.43
64841;BME280;51307;52.162;7.560;2024-03-17T07:26:19;101791.13;;;5.73;76.26
64841;BME280;51307;52.162;7.560;2024-03-17T07:28:44;101795.22;;;5.65;76.83
64841;BME280;51307;52.162;7.560;2024-03-17T07:31:10;101793.59;;;5.89;76.10
64841;BME280;51307;52.162;7.560;2024-03-17T07:33:35;101795.69;;;5.84;76.28
64841;BME280;51307;52.162;7.560;2024-03-17T07:36:01;101787.63;;;6.12;75.01
64841;BME280;51307;52.162;7.560;2024-03-17T07:38:29;101783.78;;;5.90;75.97
64841;BME280;51307;52.162;7.560;2024-03-17T07:41:07;101783.72;;;6.17;74.05
64841;BME280;51307;52.162;7.560;2024-03-17T07:43:35;101789.53;;;6.22;73.74
64841;BME280;51307;52.162;7.560;2024-03-17T07:46:08;101782.50;;;6.34;73.66
64841;BME280;51307;52.162;7.560;2024-03-17T07:48:36;101783.16;;;6.25;73.95
64841;BME280;51307;52.162;7.560;2024-03-17T07:51:07;101782.38;;;6.36;73.79
64841;BME280;51307;52.162;7.560;2024-03-17T07:53:35;101785.03;;;6.49;73.34
64841;BME280;51307;52.162;7.560;2024-03-17T07:56:08;101782.69;;;6.44;73.29
64841;BME280;51307;52.162;7.560;2024-03-17T07:58:38;101787.16;;;6.56;73.04
64841;BME280;51307;52.162;7.560;2024-03-17T08:01:06;101789.84;;;6.44;73.02
64841;BME280;51307;52.162;7.560;2024-03-17T08:03:33;101783.31;;;6.61;71.82
64841;BME280;51307;52.162;7.560;2024-03-17T08:06:01;101786.81;;;6.61;71.80
64841;BME280;51307;52.162;7.560;2024-03-17T08:08:28;101791.03;;;6.77;71.74
64841;BME280;51307;52.162;7.560;2024-03-17T08:10:54;101797.09;;;6.79;70.72
64841;BME280;51307;52.162;7.560;2024-03-17T08:13:21;101796.44;;;6.88;70.94
64841;BME280;51307;52.162;7.560;2024-03-17T08:15:56;101795.25;;;6.92;70.71
64841;BME280;51307;52.162;7.560;2024-03-17T08:18:22;101796.75;;;6.96;70.56
64841;BME280;51307;52.162;7.560;2024-03-17T08:20:47;101796.06;;;7.05;70.22
64841;BME280;51307;52.162;7.560;2024-03-17T08:23:13;101801.13;;;6.97;69.56
64841;BME280;51307;52.162;7.560;2024-03-17T08:25:39;101803.50;;;7.13;69.75
64841;BME280;51307;52.162;7.560;2024-03-17T08:28:05;101807.75;;;7.16;68.75
64841;BME280;51307;52.162;7.560;2024-03-17T08:30:32;101802.19;;;7.19;68.77
64841;BME280;51307;52.162;7.560;2024-03-17T08:32:58;101798.56;;;7.20;69.15
64841;BME280;51307;52.162;7.560;2024-03-17T08:35:24;101797.81;;;7.42;69.17
64841;BME280;51307;52.162;7.560;2024-03-17T08:37:50;101803.53;;;7.49;68.99
64841;BME280;51307;52.162;7.560;2024-03-17T08:40:23;101801.00;;;7.58;69.11
64841;BME280;51307;52.162;7.560;2024-03-17T08:42:49;101793.38;;;7.54;68.29
64841;BME280;51307;52.162;7.560;2024-03-17T08:45:14;101795.47;;;7.62;68.52
64841;BME280;51307;52.162;7.560;2024-03-17T08:47:41;101788.38;;;7.73;68.40
64841;BME280;51307;52.162;7.560;2024-03-17T08:50:07;101788.50;;;7.83;69.09
64841;BME280;51307;52.162;7.560;2024-03-17T08:52:34;101789.09;;;7.87;68.37
64841;BME280;51307;52.162;7.560;2024-03-17T08:55:00;101792.97;;;7.83;67.49
64841;BME280;51307;52.162;7.560;2024-03-17T08:57:29;101795.66;;;7.94;68.58
64841;BME280;51307;52.162;7.560;2024-03-17T08:59:55;101808.03;;;8.06;68.40
64841;BME280;51307;52.162;7.560;2024-03-17T09:02:20;101801.00;;;8.05;68.10
64841;BME280;51307;52.162;7.560;2024-03-17T09:04:48;101795.91;;;8.14;68.00
64841;BME280;51307;52.162;7.560;2024-03-17T09:07:14;101790.13;;;8.20;67.95
64841;BME280;51307;52.162;7.560;2024-03-17T09:09:41;101786.00;;;8.16;67.51
64841;BME280;51307;52.162;7.560;2024-03-17T09:12:07;101794.63;;;8.19;67.03
64841;BME280;51307;52.162;7.560;2024-03-17T09:14:33;101788.06;;;8.23;67.35
64841;BME280;51307;52.162;7.560;2024-03-17T09:16:59;101788.91;;;8.24;67.09
64841;BME280;51307;52.162;7.560;2024-03-17T09:19:24;101782.38;;;8.28;67.41
64841;BME280;51307;52.162;7.560;2024-03-17T09:21:50;101785.53;;;8.33;66.92
64841;BME280;51307;52.162;7.560;2024-03-17T09:24:15;101781.16;;;8.44;67.72
64841;BME280;51307;52.162;7.560;2024-03-17T09:26:41;101781.88;;;8.46;67.86
64841;BME280;51307;52.162;7.560;2024-03-17T09:29:06;101774.84;;;8.45;67.87
64841;BME280;51307;52.162;7.560;2024-03-17T09:31:32;101764.66;;;8.50;68.25
64841;BME280;51307;52.162;7.560;2024-03-17T09:34:01;101767.19;;;8.51;67.49
64841;BME280;51307;52.162;7.560;2024-03-17T09:36:27;101771.94;;;8.48;67.10
64841;BME280;51307;52.162;7.560;2024-03-17T09:38:52;101769.16;;;8.49;66.95
64841;BME280;51307;52.162;7.560;2024-03-17T09:41:23;101767.06;;;8.53;67.07
64841;BME280;51307;52.162;7.560;2024-03-17T09:43:57;101763.09;;;8.58;67.38
64841;BME280;51307;52.162;7.560;2024-03-17T09:46:25;101767.41;;;8.71;67.11
64841;BME280;51307;52.162;7.560;2024-03-17T09:48:53;101755.66;;;8.73;66.69
64841;BME280;51307;52.162;7.560;2024-03-17T09:51:24;101754.31;;;8.79;67.18
64841;BME280;51307;52.162;7.560;2024-03-17T09:53:50;101753.47;;;8.79;65.97
64841;BME280;51307;52.162;7.560;2024-03-17T09:56:19;101744.84;;;8.86;65.77
64841;BME280;51307;52.162;7.560;2024-03-17T10:01:11;101750.38;;;8.95;66.11
64841;BME280;51307;52.162;7.560;2024-03-17T10:06:10;101751.47;;;9.03;64.30
64841;BME280;51307;52.162;7.560;2024-03-17T10:11:15;101746.94;;;9.15;64.28
64841;BME280;51307;52.162;7.560;2024-03-17T10:13:42;101740.50;;;9.18;64.92
64841;BME280;51307;52.162;7.560;2024-03-17T10:16:22;101741.53;;;9.26;64.42
64841;BME280;51307;52.162;7.560;2024-03-17T10:18:49;101744.53;;;9.33;64.46
64841;BME280;51307;52.162;7.560;2024-03-17T10:21:27;101748.31;;;9.31;63.55
64841;BME280;51307;52.162;7.560;2024-03-17T10:24:12;101750.47;;;9.37;62.94
64841;BME280;51307;52.162;7.560;2024-03-17T10:26:41;101749.13;;;9.42;62.85
64841;BME280;51307;52.162;7.560;2024-03-17T10:29:33;101759.28;;;9.49;62.84
64841;BME280;51307;52.162;7.560;2024-03-17T10:32:11;101752.94;;;9.50;62.48
64841;BME280;51307;52.162;7.560;2024-03-17T10:34:38;101766.78;;;9.55;62.05
64841;BME280;51307;52.162;7.560;2024-03-17T10:39:33;101756.34;;;9.52;59.99
64841;BME280;51307;52.162;7.560;2024-03-17T10:42:07;101752.16;;;9.59;61.22
64841;BME280;51307;52.162;7.560;2024-03-17T10:44:38;101752.78;;;9.63;61.08
64841;BME280;51307;52.162;7.560;2024-03-17T10:47:05;101752.38;;;9.67;60.56
64841;BME280;51307;52.162;7.560;2024-03-17T10:49:36;101758.44;;;9.69;61.11
64841;BME280;51307;52.162;7.560;2024-03-17T10:52:05;101752.16;;;9.80;60.86
64841;BME280;51307;52.162;7.560;2024-03-17T10:54:33;101749.00;;;9.86;61.08
64841;BME280;51307;52.162;7.560;2024-03-17T10:59:52;101756.59;;;9.91;59.12
64841;BME280;51307;52.162;7.560;2024-03-17T11:02:25;101755.50;;;9.93;58.14
64841;BME280;51307;52.162;7.560;2024-03-17T11:04:57;101757.13;;;9.85;57.48
64841;BME280;51307;52.162;7.560;2024-03-17T11:07:25;101757.06;;;9.96;57.47
64841;BME280;51307;52.162;7.560;2024-03-17T11:09:55;101758.19;;;10.03;58.30
64841;BME280;51307;52.162;7.560;2024-03-17T11:21:17;101748.44;;;10.23;57.09
64841;BME280;51307;52.162;7.560;2024-03-17T11:23:56;101757.88;;;10.27;57.07
64841;BME280;51307;52.162;7.560;2024-03-17T11:26:33;101747.47;;;10.24;57.06
64841;BME280;51307;52.162;7.560;2024-03-17T11:29:01;101750.44;;;10.31;56.93
64841;BME280;51307;52.162;7.560;2024-03-17T11:31:41;101756.63;;;10.32;56.05
64841;BME280;51307;52.162;7.560;2024-03-17T11:36:54;101727.00;;;10.45;56.37
64841;BME280;51307;52.162;7.560;2024-03-17T11:39:20;101719.44;;;10.50;57.06
64841;BME280;51307;52.162;7.560;2024-03-17T11:41:51;101714.75;;;10.52;57.19
64841;BME280;51307;52.162;7.560;2024-03-17T11:46:54;101716.63;;;10.61;56.52
64841;BME280;51307;52.162;7.560;2024-03-17T11:49:39;101717.59;;;10.60;56.21
64841;BME280;51307;52.162;7.560;2024-03-17T11:54:38;101714.09;;;10.59;55.23
64841;BME280;51307;52.162;7.560;2024-03-17T11:57:09;101716.22;;;10.66;55.42
64841;BME280;51307;52.162;7.560;2024-03-17T11:59:36;101707.47;;;10.73;56.43
64841;BME280;51307;52.162;7.560;2024-03-17T12:04:40;101722.25;;;10.68;55.42
64841;BME280;51307;52.162;7.560;2024-03-17T12:07:13;101716.50;;;10.72;54.85
64841;BME280;51307;52.162;7.560;2024-03-17T12:09:41;101720.31;;;10.70;54.72
64841;BME280;51307;52.162;7.560;2024-03-17T12:12:22;101719.88;;;10.74;54.97
64841;BME280;51307;52.162;7.560;2024-03-17T12:14:50;101716.03;;;10.57;53.85
64841;BME280;51307;52.162;7.560;2024-03-17T12:17:24;101710.72;;;10.67;54.35
64841;BME280;51307;52.162;7.560;2024-03-17T12:19:50;101696.06;;;10.71;55.49
64841;BME280;51307;52.162;7.560;2024-03-17T12:22:22;101697.63;;;10.74;55.64
64841;BME280;51307;52.162;7.560;2024-03-17T12:24:49;101701.44;;;10.71;55.28
64841;BME280;51307;52.162;7.560;2024-03-17T12:27:24;101695.34;;;10.69;55.34
64841;BME280;51307;52.162;7.560;2024-03-17T12:29:54;101682.66;;;10.62;52.32
64841;BME280;51307;52.162;7.560;2024-03-17T12:32:24;101680.28;;;10.68;53.31
64841;BME280;51307;52.162;7.560;2024-03-17T12:34:55;101683.66;;;10.70;53.54
64841;BME280;51307;52.162;7.560;2024-03-17T12:37:22;101668.59;;;10.69;54.13
64841;BME280;51307;52.162;7.560;2024-03-17T12:39:49;101671.28;;;10.69;55.21
64841;BME280;51307;52.162;7.560;2024-03-17T12:42:37;101663.97;;;10.71;54.81
64841;BME280;51307;52.162;7.560;2024-03-17T12:45:03;101656.91;;;10.70;54.93
64841;BME280;51307;52.162;7.560;2024-03-17T12:47:34;101654.94;;;10.72;54.92
64841;BME280;51307;52.162;7.560;2024-03-17T12:50:01;101648.88;;;10.70;54.62
64841;BME280;51307;52.162;7.560;2024-03-17T12:52:32;101652.81;;;10.76;55.24
64841;BME280;51307;52.162;7.560;2024-03-17T12:55:04;101644.09;;;10.74;56.60
64841;BME280;51307;52.162;7.560;2024-03-17T12:58:09;101649.00;;;10.79;56.67
64841;BME280;51307;52.162;7.560;2024-03-17T13:01:05;101638.16;;;10.80;56.96
64841;BME280;51307;52.162;7.560;2024-03-17T13:03:36;101638.16;;;10.80;55.46
64841;BME280;51307;52.162;7.560;2024-03-17T13:06:03;101632.66;;;10.82;55.73
64841;BME280;51307;52.162;7.560;2024-03-17T13:08:32;101637.75;;;10.85;56.28
64841;BME280;51307;52.162;7.560;2024-03-17T13:10:58;101632.94;;;10.88;56.17
64841;BME280;51307;52.162;7.560;2024-03-17T13:13:24;101638.59;;;10.85;55.44
64841;BME280;51307;52.162;7.560;2024-03-17T13:15:49;101628.59;;;10.87;55.24
64841;BME280;51307;52.162;7.560;2024-03-17T13:18:17;101616.19;;;10.86;54.44
64841;BME280;51307;52.162;7.560;2024-03-17T13:20:47;101610.53;;;10.89;54.67
64841;BME280;51307;52.162;7.560;2024-03-17T13:23:15;101612.53;;;10.87;53.95
64841;BME280;51307;52.162;7.560;2024-03-17T13:25:41;101609.00;;;10.87;54.43
64841;BME280;51307;52.162;7.560;2024-03-17T13:28:09;101605.19;;;10.89;53.92
64841;BME280;51307;52.162;7.560;2024-03-17T13:30:35;101605.75;;;10.93;54.79
64841;BME280;51307;52.162;7.560;2024-03-17T13:33:03;101607.16;;;10.97;55.42
64841;BME280;51307;52.162;7.560;2024-03-17T13:35:35;101599.97;;;10.98;54.05